createdAt,value
2018-11-29T00:00:22.614Z,1.01
2018-11-29T00:02:51.802Z,0.98
2018-11-29T00:05:20.327Z,0.98
2018-11-29T00:07:48.854Z,0.96
2018-11-29T00:10:17.343Z,0.81
2018-11-29T00:12:45.859Z,0.65
2018-11-29T00:15:15.234Z,0.61
2018-11-29T00:17:43.805Z,0.54
2018-11-29T00:20:15.997Z,0.45
2018-11-29T00:22:46.355Z,0.46
2018-11-29T00:25:16.534Z,0.44
2018-11-29T00:27:45.268Z,0.49
2018-11-29T00:30:21.905Z,0.49
2018-11-29T00:32:51.281Z,0.45
2018-11-29T00:35:19.817Z,0.43
2018-11-29T00:37:48.339Z,0.35
2018-11-29T00:40:21.807Z,0.30
2018-11-29T00:42:50.337Z,0.25
2018-11-29T00:45:20.160Z,0.24
2018-11-29T00:47:48.971Z,0.23
2018-11-29T00:50:18.177Z,0.26
2018-11-29T00:52:47.742Z,0.36
2018-11-29T00:55:20.206Z,0.39
2018-11-29T00:57:48.722Z,0.43
2018-11-29T01:00:18.342Z,0.51
2018-11-29T01:02:46.894Z,0.51
2018-11-29T01:05:15.415Z,0.43
2018-11-29T01:07:43.922Z,0.45
2018-11-29T01:10:15.085Z,0.50
2018-11-29T01:12:43.823Z,0.55
2018-11-29T01:15:16.396Z,0.53
2018-11-29T01:17:45.906Z,0.55
2018-11-29T01:20:16.068Z,0.60
2018-11-29T01:22:44.606Z,0.57
2018-11-29T01:25:14.000Z,0.54
2018-11-29T01:27:43.467Z,0.61
2018-11-29T01:30:14.056Z,0.64
2018-11-29T01:32:42.549Z,0.64
2018-11-29T01:35:12.804Z,0.68
2018-11-29T01:37:41.307Z,0.69
2018-11-29T01:40:17.606Z,0.72
2018-11-29T01:42:47.369Z,0.75
2018-11-29T01:45:15.886Z,0.76
2018-11-29T01:47:44.490Z,0.78
2018-11-29T01:50:13.009Z,0.73
2018-11-29T01:52:41.543Z,0.71
2018-11-29T01:55:10.326Z,0.78
2018-11-29T01:57:38.843Z,0.77
2018-11-29T02:00:12.781Z,0.73
2018-11-29T02:02:41.341Z,0.61
2018-11-29T02:05:11.590Z,0.53
2018-11-29T02:07:40.757Z,0.52
2018-11-29T02:10:18.510Z,0.50
2018-11-29T02:12:47.059Z,0.49
2018-11-29T02:15:15.564Z,0.61
2018-11-29T02:17:44.144Z,0.57
2018-11-29T02:20:15.795Z,0.56
2018-11-29T02:22:44.492Z,0.54
2018-11-29T02:25:13.050Z,0.51
2018-11-29T02:27:41.547Z,0.52
2018-11-29T02:30:15.097Z,0.51
2018-11-29T02:32:43.706Z,0.43
2018-11-29T02:35:12.265Z,0.41
2018-11-29T02:37:40.779Z,0.41
2018-11-29T02:40:10.926Z,0.49
2018-11-29T02:42:39.552Z,0.53
2018-11-29T02:45:38.858Z,0.59
2018-11-29T02:48:07.539Z,0.68
2018-11-29T02:50:36.049Z,0.74
2018-11-29T02:53:04.552Z,0.80
2018-11-29T02:55:33.049Z,0.74
2018-11-29T02:58:01.536Z,0.69
2018-11-29T03:00:30.042Z,0.61
2018-11-29T03:02:58.534Z,0.67
2018-11-29T03:05:27.042Z,0.72
2018-11-29T03:07:55.575Z,0.76
2018-11-29T03:10:27.808Z,0.76
2018-11-29T03:12:56.366Z,0.77
2018-11-29T03:15:24.890Z,0.78
2018-11-29T03:17:53.402Z,0.81
2018-11-29T03:20:21.901Z,0.79
2018-11-29T03:22:50.433Z,0.72
2018-11-29T03:25:18.931Z,0.63
2018-11-29T03:27:47.442Z,0.55
2018-11-29T03:30:17.234Z,0.47
2018-11-29T03:32:45.786Z,0.42
2018-11-29T03:35:14.769Z,0.41
2018-11-29T03:37:43.286Z,0.38
2018-11-29T03:40:14.600Z,0.31
2018-11-29T03:42:43.172Z,0.27
2018-11-29T03:45:13.520Z,0.25
2018-11-29T03:47:42.108Z,0.25
2018-11-29T03:50:12.849Z,0.25
2018-11-29T03:52:41.363Z,0.23
2018-11-29T03:55:10.519Z,0.27
2018-11-29T03:57:39.404Z,0.26
2018-11-29T04:00:23.669Z,0.26
2018-11-29T04:02:52.177Z,0.18
2018-11-29T04:05:20.695Z,0.15
2018-11-29T04:07:49.198Z,0.14
2018-11-29T04:10:17.717Z,0.19
2018-11-29T04:12:46.302Z,0.20
2018-11-29T04:15:15.801Z,0.18
2018-11-29T04:17:44.758Z,0.24
2018-11-29T04:20:16.950Z,0.30
2018-11-29T04:22:45.536Z,0.30
2018-11-29T04:25:15.443Z,0.27
2018-11-29T04:27:44.023Z,0.26
2018-11-29T04:30:13.722Z,0.28
2018-11-29T04:32:42.413Z,0.27
2018-11-29T04:35:11.932Z,0.22
2018-11-29T04:37:41.136Z,0.11
2018-11-29T04:40:12.958Z,0.07
2018-11-29T04:42:41.954Z,0.05
2018-11-29T04:45:12.750Z,0.09
2018-11-29T04:47:41.841Z,0.14
2018-11-29T04:50:10.964Z,0.16
2018-11-29T04:52:40.005Z,0.19
2018-11-29T04:55:09.996Z,0.25
2018-11-29T04:57:39.055Z,0.25
2018-11-29T05:00:16.176Z,0.24
2018-11-29T05:02:44.908Z,0.22
2018-11-29T05:05:13.861Z,0.16
2018-11-29T05:07:42.664Z,0.24
2018-11-29T05:10:12.278Z,0.24
2018-11-29T05:12:40.787Z,0.24
2018-11-29T05:15:10.809Z,0.26
2018-11-29T05:17:39.340Z,0.31
2018-11-29T05:20:08.001Z,0.32
2018-11-29T05:22:36.525Z,0.33
2018-11-29T05:25:05.500Z,0.32
2018-11-29T05:27:34.025Z,0.32
2018-11-29T05:30:02.566Z,0.25
2018-11-29T05:32:31.086Z,0.24
2018-11-29T05:34:59.585Z,0.25
2018-11-29T05:37:28.090Z,0.32
2018-11-29T05:39:56.606Z,0.27
2018-11-29T05:42:25.137Z,0.19
2018-11-29T05:44:53.670Z,0.11
2018-11-29T05:47:22.185Z,0.00
2018-11-29T05:49:50.718Z,-0.06
2018-11-29T05:52:19.243Z,-0.07
2018-11-29T05:54:47.743Z,-0.11
2018-11-29T05:57:16.279Z,-0.15
2018-11-29T05:59:44.794Z,-0.18
2018-11-29T06:02:13.374Z,-0.13
2018-11-29T06:04:41.880Z,-0.20
2018-11-29T06:07:10.385Z,-0.22
2018-11-29T06:09:38.911Z,-0.25
2018-11-29T06:12:07.422Z,-0.29
2018-11-29T06:14:35.937Z,-0.31
2018-11-29T06:17:04.430Z,-0.32
2018-11-29T06:19:32.986Z,-0.34
2018-11-29T06:22:01.510Z,-0.35
2018-11-29T06:24:30.021Z,-0.33
2018-11-29T06:26:58.548Z,-0.35
2018-11-29T06:29:27.047Z,-0.33
2018-11-29T06:31:55.571Z,-0.30
2018-11-29T06:34:24.101Z,-0.30
2018-11-29T06:36:52.657Z,-0.32
2018-11-29T06:39:21.160Z,-0.37
2018-11-29T06:41:49.692Z,-0.38
2018-11-29T06:44:18.213Z,-0.43
2018-11-29T06:46:46.739Z,-0.44
2018-11-29T06:49:15.241Z,-0.48
2018-11-29T06:51:43.776Z,-0.51
2018-11-29T06:54:12.289Z,-0.55
2018-11-29T06:56:40.797Z,-0.57
2018-11-29T06:59:09.307Z,-0.56
2018-11-29T07:01:37.845Z,-0.56
2018-11-29T07:04:06.455Z,-0.57
2018-11-29T07:06:34.974Z,-0.59
2018-11-29T07:09:03.584Z,-0.61
2018-11-29T07:11:32.103Z,-0.61
2018-11-29T07:14:00.641Z,-0.64
2018-11-29T07:16:29.262Z,-0.67
2018-11-29T07:18:57.800Z,-0.66
2018-11-29T07:21:37.414Z,-0.65
2018-11-29T07:24:06.438Z,-0.59
2018-11-29T07:26:34.950Z,-0.56
2018-11-29T07:29:03.470Z,-0.53
2018-11-29T07:31:31.974Z,-0.54
2018-11-29T07:34:00.470Z,-0.53
2018-11-29T07:36:29.006Z,-0.51
2018-11-29T07:38:57.522Z,-0.51
2018-11-29T07:41:26.034Z,-0.50
2018-11-29T07:43:54.536Z,-0.53
2018-11-29T07:46:23.069Z,-0.51
2018-11-29T07:48:51.769Z,-0.50
2018-11-29T07:51:20.311Z,-0.48
2018-11-29T07:53:48.839Z,-0.46
2018-11-29T07:56:17.377Z,-0.42
2018-11-29T07:58:45.881Z,-0.42
2018-11-29T08:01:14.413Z,-0.42
2018-11-29T08:03:42.923Z,-0.40
2018-11-29T08:06:11.420Z,-0.43
2018-11-29T08:08:39.951Z,-0.44
2018-11-29T08:11:08.452Z,-0.47
2018-11-29T08:13:36.962Z,-0.45
2018-11-29T08:16:05.543Z,-0.48
2018-11-29T08:18:34.074Z,-0.50
2018-11-29T08:21:02.592Z,-0.50
2018-11-29T08:23:31.144Z,-0.53
2018-11-29T08:25:59.655Z,-0.52
2018-11-29T08:28:28.158Z,-0.53
2018-11-29T08:30:56.649Z,-0.50
2018-11-29T08:33:25.177Z,-0.47
2018-11-29T08:35:53.685Z,-0.49
2018-11-29T08:38:22.259Z,-0.75
2018-11-29T08:40:50.766Z,-0.48
2018-11-29T08:43:19.371Z,-0.50
2018-11-29T08:45:47.878Z,-0.50
2018-11-29T08:48:16.389Z,-0.50
2018-11-29T08:50:44.937Z,-0.50
2018-11-29T08:53:13.501Z,-0.50
2018-11-29T08:55:42.037Z,-0.52
2018-11-29T08:58:10.647Z,-0.56
2018-11-29T09:00:39.160Z,-0.56
2018-11-29T09:03:07.678Z,-0.53
2018-11-29T09:05:36.190Z,-0.49
2018-11-29T09:08:04.763Z,-0.48
2018-11-29T09:10:33.281Z,-0.45
2018-11-29T09:13:01.821Z,-0.45
2018-11-29T09:15:30.317Z,-0.40
2018-11-29T09:17:58.862Z,-0.35
2018-11-29T09:20:27.401Z,-0.32
2018-11-29T09:22:55.931Z,-0.30
2018-11-29T09:25:24.470Z,-0.27
2018-11-29T09:27:52.989Z,-0.23
2018-11-29T09:30:22.272Z,-0.20
2018-11-29T09:32:52.730Z,-0.13
2018-11-29T09:35:21.226Z,-0.07
2018-11-29T09:37:53.138Z,0.00
2018-11-29T09:40:21.731Z,0.03
2018-11-29T09:42:50.296Z,0.06
2018-11-29T09:45:20.627Z,0.12
2018-11-29T09:47:50.325Z,0.23
2018-11-29T09:50:18.985Z,0.36
2018-11-29T09:52:47.499Z,0.50
2018-11-29T09:55:16.870Z,0.66
2018-11-29T09:57:45.906Z,0.86
2018-11-29T10:00:27.803Z,1.04
2018-11-29T10:02:56.804Z,1.22
2018-11-29T10:05:25.321Z,1.41
2018-11-29T10:07:53.943Z,1.65
2018-11-29T10:10:22.565Z,1.79
2018-11-29T10:12:51.098Z,1.81
2018-11-29T10:15:19.622Z,1.85
2018-11-29T10:17:48.142Z,1.98
2018-11-29T10:20:16.670Z,2.11
2018-11-29T10:22:45.246Z,2.22
2018-11-29T10:25:14.668Z,2.30
2018-11-29T10:27:44.789Z,2.46
2018-11-29T10:30:21.148Z,2.53
2018-11-29T10:32:49.661Z,2.59
2018-11-29T10:35:18.176Z,2.68
2018-11-29T10:37:46.684Z,2.77
2018-11-29T10:40:15.173Z,2.91
2018-11-29T10:42:43.668Z,2.98
2018-11-29T10:45:15.308Z,2.98
2018-11-29T10:47:51.951Z,3.00
2018-11-29T10:50:14.517Z,3.09
2018-11-29T10:52:43.039Z,3.19
2018-11-29T10:55:15.737Z,3.29
2018-11-29T10:57:44.319Z,3.36
2018-11-29T11:00:32.910Z,3.44
2018-11-29T11:03:08.283Z,3.55
2018-11-29T11:05:37.273Z,3.62
2018-11-29T11:08:08.510Z,3.61
2018-11-29T11:10:35.743Z,3.61
2018-11-29T11:13:04.273Z,3.62
2018-11-29T11:15:32.779Z,3.68
2018-11-29T11:18:01.290Z,3.70
2018-11-29T11:20:29.850Z,3.78
2018-11-29T11:22:58.341Z,3.88
2018-11-29T11:25:26.836Z,3.95
2018-11-29T11:27:55.329Z,4.04
2018-11-29T11:30:23.862Z,4.10
2018-11-29T11:32:52.941Z,4.19
2018-11-29T11:35:21.448Z,4.30
2018-11-29T11:37:49.937Z,4.28
2018-11-29T11:40:18.490Z,4.34
2018-11-29T11:42:47.470Z,4.41
2018-11-29T11:45:17.116Z,4.50
2018-11-29T11:47:45.642Z,4.53
2018-11-29T11:50:18.094Z,4.46
2018-11-29T11:52:46.606Z,4.41
2018-11-29T11:55:18.928Z,4.33
2018-11-29T11:57:44.246Z,4.32
2018-11-29T12:00:20.842Z,4.27
2018-11-29T12:02:50.837Z,4.17
2018-11-29T12:05:19.340Z,4.06
2018-11-29T12:07:47.875Z,3.98
2018-11-29T12:10:16.706Z,3.98
2018-11-29T12:12:45.193Z,3.97
2018-11-29T12:15:14.791Z,3.99
2018-11-29T12:17:45.294Z,4.03
2018-11-29T12:20:16.676Z,4.14
2018-11-29T12:22:45.173Z,4.24
2018-11-29T12:25:15.469Z,4.29
2018-11-29T12:27:43.977Z,4.32
2018-11-29T12:30:31.793Z,4.25
2018-11-29T12:33:03.463Z,4.17
2018-11-29T12:35:32.174Z,4.12
2018-11-29T12:38:00.766Z,4.08
2018-11-29T12:40:29.274Z,3.98
2018-11-29T12:42:57.783Z,3.85
2018-11-29T12:45:26.283Z,3.83
2018-11-29T12:47:54.872Z,3.75
2018-11-29T12:50:24.629Z,3.76
2018-11-29T12:52:53.195Z,3.71
2018-11-29T12:55:22.754Z,3.66
2018-11-29T12:58:04.581Z,3.65
2018-11-29T13:00:20.986Z,3.63
2018-11-29T13:02:51.488Z,3.62
2018-11-29T13:05:20.003Z,3.59
2018-11-29T13:07:48.523Z,3.57
2018-11-29T13:10:19.949Z,3.59
2018-11-29T13:12:48.530Z,3.58
2018-11-29T13:15:19.301Z,3.53
2018-11-29T13:17:47.851Z,3.50
2018-11-29T13:20:17.374Z,3.48
2018-11-29T13:22:45.918Z,3.41
2018-11-29T13:25:15.672Z,3.32
2018-11-29T13:27:44.210Z,3.30
2018-11-29T13:30:15.019Z,3.27
2018-11-29T13:32:43.528Z,3.25
2018-11-29T13:35:16.151Z,3.19
2018-11-29T13:37:46.472Z,3.17
2018-11-29T13:40:14.979Z,3.18
2018-11-29T13:42:43.462Z,3.15
2018-11-29T13:45:12.170Z,3.09
2018-11-29T13:47:41.429Z,3.04
2018-11-29T13:50:12.288Z,3.00
2018-11-29T13:52:40.792Z,2.96
2018-11-29T13:55:10.443Z,2.95
2018-11-29T13:57:38.959Z,2.93
2018-11-29T14:00:17.955Z,2.85
2018-11-29T14:02:47.660Z,2.79
2018-11-29T14:05:16.183Z,2.72
2018-11-29T14:07:44.672Z,2.66
2018-11-29T14:10:19.147Z,2.60
2018-11-29T14:12:48.663Z,2.57
2018-11-29T14:15:19.014Z,2.55
2018-11-29T14:17:47.506Z,2.53
2018-11-29T14:20:16.062Z,2.50
2018-11-29T14:22:44.555Z,2.46
2018-11-29T14:25:14.130Z,2.41
2018-11-29T14:27:43.725Z,2.34
2018-11-29T14:30:21.235Z,2.32
2018-11-29T14:32:49.830Z,2.26
2018-11-29T14:35:18.328Z,2.20
2018-11-29T14:37:46.821Z,2.19
2018-11-29T14:40:18.105Z,2.14
2018-11-29T14:42:46.610Z,2.11
2018-11-29T14:45:16.202Z,2.07
2018-11-29T14:47:44.709Z,2.01
2018-11-29T14:50:38.177Z,1.99
2018-11-29T14:53:07.876Z,1.96
2018-11-29T14:55:37.088Z,1.93
2018-11-29T14:58:06.262Z,1.89
2018-11-29T15:00:35.061Z,1.87
2018-11-29T15:03:06.385Z,1.85
2018-11-29T15:05:34.906Z,1.82
2018-11-29T15:08:03.397Z,1.78
2018-11-29T15:10:31.896Z,1.75
2018-11-29T15:13:00.380Z,1.67
2018-11-29T15:15:28.882Z,1.64
2018-11-29T15:17:57.383Z,1.60
2018-11-29T15:20:33.457Z,1.57
2018-11-29T15:23:01.952Z,1.51
2018-11-29T15:25:30.452Z,1.44
2018-11-29T15:27:58.994Z,1.40
2018-11-29T15:30:27.479Z,1.37
2018-11-29T15:32:55.974Z,1.35
2018-11-29T15:35:24.494Z,1.30
2018-11-29T15:37:53.018Z,1.26
2018-11-29T15:40:21.526Z,1.26
2018-11-29T15:42:50.025Z,1.23
2018-11-29T15:45:22.740Z,1.19
2018-11-29T15:47:51.255Z,1.13
2018-11-29T15:50:19.788Z,1.10
2018-11-29T15:52:48.304Z,1.07
2018-11-29T15:55:20.000Z,1.05
2018-11-29T15:57:49.263Z,1.04
2018-11-29T16:00:19.939Z,1.01
2018-11-29T16:02:48.977Z,0.99
2018-11-29T16:05:18.260Z,0.96
2018-11-29T16:07:47.005Z,0.90
2018-11-29T16:10:16.925Z,0.89
2018-11-29T16:12:45.528Z,0.88
2018-11-29T16:15:18.071Z,0.87
2018-11-29T16:17:47.526Z,0.90
2018-11-29T16:20:26.949Z,0.89
2018-11-29T16:22:55.675Z,0.83
2018-11-29T16:25:24.644Z,0.85
2018-11-29T16:27:53.512Z,0.86
2018-11-29T16:30:30.456Z,0.86
2018-11-29T16:33:01.116Z,0.85
2018-11-29T16:35:29.743Z,0.79
2018-11-29T16:37:58.423Z,0.71
2018-11-29T16:40:27.094Z,0.72
2018-11-29T16:42:55.694Z,0.69
2018-11-29T16:45:24.366Z,0.62
2018-11-29T16:47:53.074Z,0.60
2018-11-29T16:50:21.616Z,0.58
2018-11-29T16:52:50.134Z,0.55
2018-11-29T16:55:18.628Z,0.53
2018-11-29T16:57:49.889Z,0.51
2018-11-29T17:00:20.331Z,0.48
2018-11-29T17:02:48.898Z,0.46
2018-11-29T17:05:17.409Z,0.46
2018-11-29T17:07:45.912Z,0.45
2018-11-29T17:10:16.590Z,0.48
2018-11-29T17:12:46.702Z,0.46
2018-11-29T17:15:16.506Z,0.50
2018-11-29T17:17:44.994Z,0.53
2018-11-29T17:20:15.386Z,0.60
2018-11-29T17:22:44.350Z,0.54
2018-11-29T17:25:13.493Z,0.48
2018-11-29T17:27:42.015Z,0.47
2018-11-29T17:30:14.944Z,0.47
2018-11-29T17:32:43.760Z,0.50
2018-11-29T17:35:12.386Z,0.54
2018-11-29T17:37:40.872Z,0.63
2018-11-29T17:40:13.614Z,0.63
2018-11-29T17:42:42.136Z,0.53
2018-11-29T17:45:13.758Z,0.45
2018-11-29T17:47:43.138Z,0.41
2018-11-29T17:50:30.778Z,0.35
2018-11-29T17:52:59.277Z,0.28
2018-11-29T17:55:27.832Z,0.32
2018-11-29T17:57:56.342Z,0.33
2018-11-29T18:00:26.275Z,0.29
2018-11-29T18:02:54.814Z,0.23
2018-11-29T18:05:23.309Z,0.22
2018-11-29T18:07:51.797Z,0.25
2018-11-29T18:10:26.126Z,0.22
2018-11-29T18:13:01.283Z,0.19
2018-11-29T18:15:32.385Z,0.18
2018-11-29T18:18:00.923Z,0.20
2018-11-29T18:20:29.454Z,0.18
2018-11-29T18:22:57.968Z,0.03
2018-11-29T18:25:26.509Z,0.17
2018-11-29T18:27:55.020Z,0.15
2018-11-29T18:30:23.757Z,0.15
2018-11-29T18:32:52.288Z,0.15
2018-11-29T18:35:20.796Z,0.17
2018-11-29T18:37:50.128Z,0.19
2018-11-29T18:40:21.720Z,0.21
2018-11-29T18:43:00.249Z,0.21
2018-11-29T18:45:28.881Z,0.23
2018-11-29T18:47:57.465Z,0.24
2018-11-29T18:50:26.748Z,0.23
2018-11-29T18:52:55.305Z,0.20
2018-11-29T18:55:24.978Z,0.20
2018-11-29T18:57:54.113Z,0.20
2018-11-29T19:00:25.676Z,0.18
2018-11-29T19:02:56.910Z,0.20
2018-11-29T19:05:22.836Z,0.19
2018-11-29T19:07:51.375Z,0.20
2018-11-29T19:10:20.159Z,0.20
2018-11-29T19:12:59.987Z,0.23
2018-11-29T19:15:28.493Z,0.22
2018-11-29T19:17:56.996Z,0.27
2018-11-29T19:20:26.346Z,0.30
2018-11-29T19:22:54.888Z,0.28
2018-11-29T19:25:23.365Z,0.28
2018-11-29T19:27:51.864Z,0.29
2018-11-29T19:30:21.679Z,0.30
2018-11-29T19:32:53.231Z,0.33
2018-11-29T19:35:22.793Z,0.33
2018-11-29T19:37:51.378Z,0.32
2018-11-29T19:40:19.905Z,0.37
2018-11-29T19:42:48.445Z,0.34
2018-11-29T19:45:17.091Z,0.33
2018-11-29T19:47:45.622Z,0.38
2018-11-29T19:50:17.156Z,0.39
2018-11-29T19:52:47.029Z,0.42
2018-11-29T19:55:18.246Z,0.46
2018-11-29T19:57:46.793Z,0.46
2018-11-29T20:00:15.308Z,0.45
2018-11-29T20:02:44.909Z,0.51
2018-11-29T20:05:13.719Z,0.52
2018-11-29T20:07:42.241Z,0.49
2018-11-29T20:10:13.330Z,0.48
2018-11-29T20:12:41.748Z,0.49
2018-11-29T20:15:13.662Z,0.50
2018-11-29T20:17:42.194Z,0.45
2018-11-29T20:20:11.725Z,0.40
2018-11-29T20:22:40.506Z,0.38
2018-11-29T20:25:17.186Z,0.41
2018-11-29T20:27:46.130Z,0.42
2018-11-29T20:30:19.641Z,0.41
2018-11-29T20:32:49.209Z,0.38
2018-11-29T20:35:18.342Z,0.36
2018-11-29T20:37:47.294Z,0.34
2018-11-29T20:40:17.819Z,0.32
2018-11-29T20:42:47.317Z,0.32
2018-11-29T20:45:25.260Z,0.38
2018-11-29T20:47:53.760Z,0.36
2018-11-29T20:50:23.624Z,0.35
2018-11-29T20:52:53.435Z,0.35
2018-11-29T20:55:26.297Z,0.34
2018-11-29T20:57:54.860Z,0.35
2018-11-29T21:00:23.369Z,0.37
2018-11-29T21:02:51.881Z,0.37
2018-11-29T21:05:21.586Z,0.39
2018-11-29T21:07:51.548Z,0.41
2018-11-29T21:10:22.278Z,0.42
2018-11-29T21:12:50.774Z,0.42
2018-11-29T21:15:19.351Z,0.42
2018-11-29T21:17:47.906Z,0.43
2018-11-29T21:20:17.570Z,0.43
2018-11-29T21:22:47.242Z,0.42
2018-11-29T21:25:23.083Z,0.38
2018-11-29T21:27:51.652Z,0.38
2018-11-29T21:30:20.158Z,0.35
2018-11-29T21:32:49.197Z,0.30
2018-11-29T21:35:19.938Z,0.29
2018-11-29T21:37:48.506Z,0.29
2018-11-29T21:40:23.451Z,0.27
2018-11-29T21:42:51.966Z,0.22
2018-11-29T21:45:20.518Z,0.20
2018-11-29T21:47:49.017Z,0.21
2018-11-29T21:50:17.513Z,0.21
2018-11-29T21:52:46.032Z,0.22
2018-11-29T21:55:14.570Z,0.24
2018-11-29T21:57:43.064Z,0.27
2018-11-29T22:00:13.801Z,0.24
2018-11-29T22:02:44.208Z,0.23
2018-11-29T22:05:12.700Z,0.26
2018-11-29T22:07:41.221Z,0.26
2018-11-29T22:10:09.719Z,0.29
2018-11-29T22:12:38.245Z,0.30
2018-11-29T22:15:08.946Z,0.28
2018-11-29T22:17:41.493Z,0.29
2018-11-29T22:20:10.009Z,0.31
2018-11-29T22:22:38.513Z,0.28
2018-11-29T22:25:07.666Z,0.25
2018-11-29T22:27:36.189Z,0.25
2018-11-29T22:30:05.394Z,0.18
2018-11-29T22:32:33.911Z,0.18
2018-11-29T22:35:02.426Z,0.16
2018-11-29T22:37:30.922Z,0.13
2018-11-29T22:39:59.427Z,0.14
2018-11-29T22:42:27.964Z,0.09
2018-11-29T22:44:56.478Z,0.07
2018-11-29T22:47:24.994Z,0.05
2018-11-29T22:49:53.499Z,0.05
2018-11-29T22:52:22.006Z,0.03
2018-11-29T22:54:50.513Z,0.06
2018-11-29T22:57:19.029Z,0.08
2018-11-29T22:59:47.553Z,0.11
2018-11-29T23:02:16.119Z,0.13
2018-11-29T23:04:44.763Z,0.09
2018-11-29T23:07:13.300Z,0.11
2018-11-29T23:09:41.817Z,0.10
2018-11-29T23:12:10.315Z,0.12
2018-11-29T23:14:38.817Z,0.15
2018-11-29T23:17:07.327Z,0.13
2018-11-29T23:19:35.863Z,0.14
2018-11-29T23:22:04.423Z,0.19
2018-11-29T23:24:32.915Z,0.27
2018-11-29T23:27:01.449Z,0.27
2018-11-29T23:29:29.944Z,0.28
2018-11-29T23:31:58.460Z,0.26
2018-11-29T23:34:26.969Z,0.22
2018-11-29T23:36:55.492Z,0.20
2018-11-29T23:39:24.019Z,0.18
2018-11-29T23:41:52.549Z,0.17
2018-11-29T23:44:21.129Z,0.15
2018-11-29T23:46:49.637Z,0.19
2018-11-29T23:49:18.136Z,0.12
2018-11-29T23:51:46.667Z,0.07
2018-11-29T23:54:15.202Z,0.03
2018-11-29T23:56:43.768Z,0.03
2018-11-29T23:59:12.294Z,0.02
